createdAt,value
2019-04-11T00:00:25.621Z,94920.02
2019-04-11T00:02:55.261Z,94927.20
2019-04-11T00:05:24.000Z,94915.77
2019-04-11T00:07:52.555Z,94911.99
2019-04-11T00:10:21.383Z,94907.76
2019-04-11T00:12:50.571Z,94914.52
2019-04-11T00:15:20.315Z,94923.40
2019-04-11T00:17:50.143Z,94916.22
2019-04-11T00:20:20.080Z,94916.64
2019-04-11T00:22:50.110Z,94918.75
2019-04-11T00:25:19.819Z,94917.49
2019-04-11T00:27:48.958Z,94914.52
2019-04-11T00:30:18.071Z,94914.52
2019-04-11T00:32:46.677Z,94909.86
2019-04-11T00:35:15.507Z,94899.30
2019-04-11T00:37:45.221Z,94905.64
2019-04-11T00:40:15.205Z,94915.39
2019-04-11T00:42:45.120Z,94910.75
2019-04-11T00:45:15.760Z,94912.00
2019-04-11T00:47:45.008Z,94917.52
2019-04-11T00:50:15.548Z,94914.55
2019-04-11T00:52:44.191Z,94920.48
2019-04-11T00:55:13.370Z,94924.72
2019-04-11T00:57:43.163Z,94917.52
2019-04-11T01:00:13.132Z,94925.98
2019-04-11T01:02:43.337Z,94923.03
2019-04-11T01:05:13.035Z,94921.75
2019-04-11T01:07:42.841Z,94923.45
2019-04-11T01:10:12.163Z,94924.30
2019-04-11T01:12:40.873Z,94925.58
2019-04-11T01:15:11.572Z,94920.91
2019-04-11T01:17:41.272Z,94919.21
2019-04-11T01:20:11.248Z,94920.91
2019-04-11T01:22:40.574Z,94922.59
2019-04-11T01:25:10.512Z,94917.52
2019-04-11T01:27:39.956Z,94923.04
2019-04-11T01:30:12.376Z,94915.83
2019-04-11T01:32:42.317Z,94915.41
2019-04-11T01:35:11.117Z,94919.63
2019-04-11T01:37:40.076Z,94919.64
2019-04-11T01:40:09.913Z,94924.70
2019-04-11T01:42:39.650Z,94924.70
2019-04-11T01:45:09.807Z,94920.91
2019-04-11T01:47:42.821Z,94916.25
2019-04-11T01:50:12.702Z,94914.98
2019-04-11T01:52:42.425Z,94920.05
2019-04-11T01:55:12.302Z,94914.55
2019-04-11T01:57:43.113Z,94915.82
2019-04-11T02:00:15.625Z,94914.13
2019-04-11T02:02:49.012Z,94918.36
2019-04-11T02:05:29.345Z,94923.83
2019-04-11T02:07:58.705Z,94921.30
2019-04-11T02:10:28.720Z,94924.69
2019-04-11T02:12:58.214Z,94924.25
2019-04-11T02:15:28.339Z,94927.66
2019-04-11T02:17:57.334Z,94930.61
2019-04-11T02:20:27.131Z,94931.01
2019-04-11T02:23:10.836Z,94938.61
2019-04-11T02:25:50.328Z,94933.53
2019-04-11T02:28:20.298Z,94943.27
2019-04-11T02:30:54.442Z,94946.64
2019-04-11T02:33:26.217Z,94952.09
2019-04-11T02:35:55.011Z,94953.77
2019-04-11T02:38:24.855Z,94948.70
2019-04-11T02:40:55.057Z,94955.02
2019-04-11T02:43:25.646Z,94954.17
2019-04-11T02:46:08.826Z,94957.11
2019-04-11T02:48:26.709Z,94958.78
2019-04-11T02:50:56.538Z,94961.31
2019-04-11T02:53:26.667Z,94960.92
2019-04-11T02:55:58.275Z,94968.93
2019-04-11T02:58:27.996Z,94971.07
2019-04-11T03:01:01.041Z,94977.81
2019-04-11T03:03:29.749Z,94967.22
2019-04-11T03:05:59.895Z,94966.77
2019-04-11T03:08:31.843Z,94961.69
2019-04-11T03:11:01.696Z,94966.73
2019-04-11T03:13:30.579Z,94970.09
2019-04-11T03:16:17.159Z,94970.52
2019-04-11T03:18:46.181Z,94975.59
2019-04-11T03:21:06.099Z,94967.18
2019-04-11T03:23:31.248Z,94970.11
2019-04-11T03:26:00.743Z,94982.73
2019-04-11T03:28:31.441Z,94976.39
2019-04-11T03:31:32.691Z,94973.41
2019-04-11T03:38:56.880Z,94968.73
2019-04-11T03:41:22.279Z,94970.83
2019-04-11T03:43:47.789Z,94972.11
2019-04-11T03:46:26.562Z,94975.86
2019-04-11T03:48:49.658Z,94981.77
2019-04-11T03:51:08.869Z,94983.45
2019-04-11T03:53:38.288Z,94984.77
2019-04-11T03:56:07.732Z,94982.59
2019-04-11T03:58:37.444Z,94981.73
2019-04-11T04:01:08.676Z,94981.30
2019-04-11T04:03:38.690Z,94974.48
2019-04-11T04:06:09.003Z,94978.24
2019-04-11T04:08:38.672Z,94988.41
2019-04-11T04:11:12.138Z,94987.09
2019-04-11T04:13:45.396Z,94986.23
2019-04-11T04:16:24.785Z,94995.92
2019-04-11T04:18:54.244Z,94995.05
2019-04-11T04:21:28.856Z,94993.38
2019-04-11T04:24:00.085Z,94987.47
2019-04-11T04:26:29.271Z,95006.88
2019-04-11T04:28:59.822Z,95004.75
2019-04-11T04:31:28.801Z,95019.53
2019-04-11T04:33:57.820Z,95011.06
2019-04-11T04:36:29.439Z,95016.50
2019-04-11T04:38:59.269Z,95017.76
2019-04-11T04:41:39.285Z,95019.42
2019-04-11T04:44:01.933Z,95020.29
2019-04-11T04:46:47.160Z,95032.50
2019-04-11T04:49:02.331Z,95028.23
2019-04-11T04:51:31.750Z,95029.93
2019-04-11T04:54:00.598Z,95030.72
2019-04-11T04:56:31.863Z,95026.45
2019-04-11T04:58:59.802Z,95034.06
2019-04-11T05:01:29.635Z,95030.25
2019-04-11T05:03:59.002Z,95034.91
2019-04-11T05:06:28.189Z,95032.36
2019-04-11T05:08:58.138Z,95040.77
2019-04-11T05:11:28.346Z,95023.48
2019-04-11T05:13:58.631Z,95026.83
2019-04-11T05:16:27.593Z,95021.80
2019-04-11T05:18:56.663Z,95027.33
2019-04-11T05:21:27.620Z,95028.59
2019-04-11T05:23:56.665Z,95035.73
2019-04-11T05:26:25.792Z,95031.98
2019-04-11T05:28:55.235Z,95033.25
2019-04-11T05:31:24.822Z,95029.03
2019-04-11T05:33:53.937Z,95036.20
2019-04-11T05:36:22.789Z,95036.62
2019-04-11T05:38:52.675Z,95036.16
2019-04-11T05:41:22.853Z,95044.22
2019-04-11T05:43:51.844Z,95042.95
2019-04-11T05:46:31.331Z,95048.04
2019-04-11T05:48:58.994Z,95051.89
2019-04-11T05:51:26.433Z,95057.38
2019-04-11T05:53:57.736Z,95061.99
2019-04-11T05:56:30.846Z,95053.96
2019-04-11T05:59:01.923Z,95059.02
2019-04-11T06:01:32.268Z,95063.68
2019-04-11T06:04:02.727Z,95050.12
2019-04-11T06:06:36.944Z,95049.73
2019-04-11T06:09:10.374Z,95051.80
2019-04-11T06:11:48.219Z,95052.63
2019-04-11T06:14:35.809Z,95065.30
2019-04-11T06:17:07.203Z,95072.02
2019-04-11T06:19:50.043Z,95055.16
2019-04-11T06:22:19.805Z,95063.59
2019-04-11T06:24:50.213Z,95058.52
2019-04-11T06:27:26.600Z,95059.36
2019-04-11T06:29:57.020Z,95074.93
2019-04-11T06:32:44.004Z,95063.16
2019-04-11T06:35:20.392Z,95077.11
2019-04-11T06:37:50.581Z,95070.45
2019-04-11T06:40:20.942Z,95068.30
2019-04-11T06:42:53.931Z,95068.80
2019-04-11T06:45:24.064Z,95061.17
2019-04-11T06:47:57.084Z,95062.11
2019-04-11T06:50:31.279Z,95047.84
2019-04-11T06:53:00.340Z,95046.54
2019-04-11T06:55:37.113Z,95043.59
2019-04-11T06:58:13.304Z,95056.16
2019-04-11T07:00:43.607Z,95057.39
2019-04-11T07:03:22.257Z,95070.05
2019-04-11T07:05:44.279Z,95057.80
2019-04-11T07:08:13.825Z,95060.30
2019-04-11T07:10:44.716Z,95054.91
2019-04-11T07:13:16.322Z,95065.16
2019-04-11T07:15:46.763Z,95069.34
2019-04-11T07:18:35.718Z,95074.00
2019-04-11T07:21:06.308Z,95069.73
2019-04-11T07:23:53.455Z,95079.46
2019-04-11T07:26:25.115Z,95079.00
2019-04-11T07:28:56.524Z,95083.59
2019-04-11T07:31:30.123Z,95085.72
2019-04-11T07:34:00.841Z,95084.47
2019-04-11T07:36:48.377Z,95098.78
2019-04-11T07:39:22.525Z,95086.44
2019-04-11T07:41:56.154Z,95086.13
2019-04-11T07:44:28.721Z,95082.83
2019-04-11T07:47:14.631Z,95075.27
2019-04-11T07:49:44.991Z,95082.14
2019-04-11T07:52:15.605Z,95090.18
2019-04-11T07:54:45.492Z,95094.41
2019-04-11T07:57:19.291Z,95105.80
2019-04-11T07:59:55.908Z,95104.45
2019-04-11T08:02:43.372Z,95116.29
2019-04-11T08:05:15.352Z,95117.82
2019-04-11T08:08:04.814Z,95111.51
2019-04-11T08:10:37.367Z,95116.64
2019-04-11T08:13:07.652Z,95127.25
2019-04-11T08:15:53.735Z,95121.60
2019-04-11T08:18:24.397Z,95121.15
2019-04-11T08:21:10.752Z,95123.68
2019-04-11T08:23:41.005Z,95124.86
2019-04-11T08:26:24.095Z,95125.68
2019-04-11T08:29:05.354Z,95121.05
2019-04-11T08:31:42.591Z,95124.05
2019-04-11T08:34:11.449Z,95116.00
2019-04-11T08:36:58.932Z,95116.94
2019-04-11T08:39:29.010Z,95108.55
2019-04-11T08:42:09.364Z,95108.58
2019-04-11T08:44:38.103Z,95107.86
2019-04-11T08:47:07.862Z,95124.33
2019-04-11T08:49:44.391Z,95132.29
2019-04-11T08:52:18.007Z,95116.59
2019-04-11T08:55:00.322Z,95117.91
2019-04-11T08:57:31.802Z,95125.59
2019-04-11T09:00:18.106Z,95119.73
2019-04-11T09:02:49.213Z,95113.02
2019-04-11T09:05:35.433Z,95102.53
2019-04-11T09:08:16.301Z,95100.95
2019-04-11T09:11:02.972Z,95108.95
2019-04-11T09:13:51.507Z,95100.14
2019-04-11T09:16:37.924Z,95107.78
2019-04-11T09:19:08.347Z,95120.02
2019-04-11T09:21:56.214Z,95112.05
2019-04-11T09:24:30.426Z,95133.09
2019-04-11T09:27:17.303Z,95114.88
2019-04-11T09:29:53.191Z,95105.64
2019-04-11T09:32:40.362Z,95108.25
2019-04-11T09:35:14.398Z,95110.36
2019-04-11T09:37:44.549Z,95106.55
2019-04-11T09:40:31.963Z,95111.60
2019-04-11T09:43:19.628Z,95114.13
2019-04-11T09:46:06.127Z,95112.45
2019-04-11T09:48:37.799Z,95103.14
2019-04-11T09:51:09.421Z,95107.80
2019-04-11T09:53:41.056Z,95106.97
2019-04-11T09:56:29.164Z,95108.71
2019-04-11T09:59:02.424Z,95101.61
2019-04-11T10:01:35.182Z,95110.90
2019-04-11T10:04:04.329Z,95115.98
2019-04-11T10:06:37.278Z,95114.25
2019-04-11T10:09:07.989Z,95114.28
2019-04-11T10:11:38.154Z,95114.30
2019-04-11T10:14:09.359Z,95110.11
2019-04-11T10:16:56.134Z,95113.92
2019-04-11T10:19:27.611Z,95112.67
2019-04-11T10:22:04.839Z,95114.81
2019-04-11T10:24:50.544Z,95116.06
2019-04-11T10:27:26.870Z,95114.75
2019-04-11T10:30:13.486Z,95117.33
2019-04-11T10:32:43.752Z,95116.06
2019-04-11T10:35:32.497Z,95119.94
2019-04-11T10:38:02.372Z,95112.75
2019-04-11T10:40:50.299Z,95110.63
2019-04-11T10:43:20.258Z,95118.66
2019-04-11T10:45:56.429Z,95123.30
2019-04-11T10:48:46.725Z,95113.48
2019-04-11T10:51:32.414Z,95117.67
2019-04-11T10:54:03.730Z,95120.66
2019-04-11T10:56:51.671Z,95126.53
2019-04-11T10:59:24.588Z,95125.60
2019-04-11T11:01:53.911Z,95131.50
2019-04-11T11:04:27.641Z,95129.00
2019-04-11T11:06:58.834Z,95131.95
2019-04-11T11:09:32.360Z,95122.24
2019-04-11T11:12:15.075Z,95136.55
2019-04-11T11:14:49.030Z,95137.78
2019-04-11T11:17:49.863Z,95146.57
2019-04-11T11:20:26.725Z,95144.42
2019-04-11T11:22:57.043Z,95149.93
2019-04-11T11:25:27.673Z,95149.08
2019-04-11T11:27:56.499Z,95152.92
2019-04-11T11:30:39.901Z,95157.53
2019-04-11T11:33:10.078Z,95155.74
2019-04-11T11:35:40.998Z,95159.13
2019-04-11T11:38:13.469Z,95160.37
2019-04-11T11:40:50.125Z,95161.65
2019-04-11T11:43:21.204Z,95151.53
2019-04-11T11:46:00.912Z,95164.61
2019-04-11T11:48:31.281Z,95173.08
2019-04-11T11:51:01.410Z,95165.05
2019-04-11T11:53:31.597Z,95177.70
2019-04-11T11:56:03.245Z,95175.58
2019-04-11T11:58:49.019Z,95176.39
2019-04-11T12:01:27.225Z,95175.94
2019-04-11T12:04:10.758Z,95177.19
2019-04-11T12:06:41.392Z,95178.45
2019-04-11T12:09:12.746Z,95169.11
2019-04-11T12:11:44.216Z,95174.96
2019-04-11T12:14:24.266Z,95174.49
2019-04-11T12:17:10.824Z,95169.39
2019-04-11T12:19:57.436Z,95167.68
2019-04-11T12:22:24.813Z,95170.49
2019-04-11T12:24:55.062Z,95170.05
2019-04-11T12:27:35.119Z,95174.25
2019-04-11T12:30:10.633Z,95177.59
2019-04-11T12:32:40.998Z,95175.03
2019-04-11T12:35:29.001Z,95174.64
2019-04-11T12:38:02.158Z,95172.12
2019-04-11T12:40:48.610Z,95174.59
2019-04-11T12:43:17.944Z,95165.64
2019-04-11T12:46:04.623Z,95175.29
2019-04-11T12:48:34.809Z,95178.24
2019-04-11T12:51:13.827Z,95178.22
2019-04-11T12:53:42.521Z,95176.53
2019-04-11T12:56:15.541Z,95172.66
2019-04-11T12:58:45.810Z,95178.56
2019-04-11T13:01:19.429Z,95185.30
2019-04-11T13:03:52.360Z,95182.72
2019-04-11T13:06:34.845Z,95190.76
2019-04-11T13:09:12.675Z,95183.11
2019-04-11T13:11:54.739Z,95189.44
2019-04-11T13:14:37.757Z,95182.67
2019-04-11T13:17:13.471Z,95185.17
2019-04-11T13:19:46.474Z,95185.95
2019-04-11T13:22:16.687Z,95191.44
2019-04-11T13:24:46.931Z,95190.95
2019-04-11T13:27:17.175Z,95194.20
2019-04-11T13:29:47.862Z,95190.81
2019-04-11T13:32:34.378Z,95192.95
2019-04-11T13:35:04.586Z,95194.21
2019-04-11T13:37:51.324Z,95203.84
2019-04-11T13:40:37.879Z,95198.30
2019-04-11T13:43:10.827Z,95204.27
2019-04-11T13:45:41.084Z,95198.23
2019-04-11T13:48:14.232Z,95208.28
2019-04-11T13:50:43.580Z,95205.73
2019-04-11T13:53:30.401Z,95202.66
2019-04-11T13:55:59.144Z,95210.10
2019-04-11T13:58:29.411Z,95211.62
2019-04-11T14:00:58.056Z,95219.09
2019-04-11T14:03:44.064Z,95218.14
2019-04-11T14:06:14.331Z,95216.31
2019-04-11T14:09:01.499Z,95211.23
2019-04-11T14:11:31.602Z,95210.77
2019-04-11T14:14:03.080Z,95206.52
2019-04-11T14:16:32.074Z,95204.38
2019-04-11T14:19:11.704Z,95202.62
2019-04-11T14:21:39.209Z,95203.50
2019-04-11T14:24:24.397Z,95202.24
2019-04-11T14:26:54.988Z,95200.59
2019-04-11T14:29:25.173Z,95197.23
2019-04-11T14:31:58.363Z,95200.25
2019-04-11T14:34:44.980Z,95197.30
2019-04-11T14:37:15.258Z,95208.24
2019-04-11T14:39:51.456Z,95201.78
2019-04-11T14:42:21.789Z,95205.53
2019-04-11T14:44:52.425Z,95202.52
2019-04-11T14:47:31.672Z,95206.69
2019-04-11T14:50:01.862Z,95207.45
2019-04-11T14:52:48.327Z,95204.00
2019-04-11T14:55:18.976Z,95208.17
2019-04-11T14:58:05.006Z,95212.72
2019-04-11T15:00:38.080Z,95214.31
2019-04-11T15:03:17.053Z,95207.63
2019-04-11T15:05:59.486Z,95215.20
2019-04-11T15:08:48.147Z,95217.27
2019-04-11T15:11:24.610Z,95222.73
2019-04-11T15:13:54.823Z,95226.06
2019-04-11T15:16:25.100Z,95226.94
2019-04-11T15:18:55.274Z,95224.03
2019-04-11T15:21:25.459Z,95229.97
2019-04-11T15:23:53.999Z,95227.91
2019-04-11T15:26:30.334Z,95230.46
2019-04-11T15:29:00.452Z,95230.05
2019-04-11T15:31:39.345Z,95226.72
2019-04-11T15:34:08.435Z,95225.88
2019-04-11T15:36:39.852Z,95224.66
2019-04-11T15:39:10.422Z,95229.74
2019-04-11T15:41:40.515Z,95228.44
2019-04-11T15:44:26.996Z,95231.38
2019-04-11T15:46:57.235Z,95229.74
2019-04-11T15:49:36.161Z,95227.17
2019-04-11T15:52:07.497Z,95230.09
2019-04-11T15:54:49.564Z,95230.97
2019-04-11T15:57:29.050Z,95227.17
2019-04-11T15:59:59.242Z,95229.23
2019-04-11T16:02:38.236Z,95235.09
2019-04-11T16:05:20.976Z,95235.05
2019-04-11T16:07:57.492Z,95240.48
2019-04-11T16:10:27.627Z,95244.64
2019-04-11T16:13:03.486Z,95244.22
2019-04-11T16:15:45.640Z,95240.86
2019-04-11T16:18:21.548Z,95246.63
2019-04-11T16:20:51.792Z,95243.22
2019-04-11T16:23:31.097Z,95244.77
2019-04-11T16:25:59.563Z,95243.05
2019-04-11T16:28:45.138Z,95246.33
2019-04-11T16:31:13.682Z,95247.58
2019-04-11T16:33:46.099Z,95252.58
2019-04-11T16:36:16.291Z,95247.88
2019-04-11T16:38:50.330Z,95255.41
2019-04-11T16:41:30.002Z,95254.14
2019-04-11T16:44:02.616Z,95253.30
2019-04-11T16:46:49.454Z,95256.23
2019-04-11T16:49:17.944Z,95260.86
2019-04-11T16:51:46.533Z,95265.48
2019-04-11T16:54:15.112Z,95259.18
2019-04-11T16:56:43.893Z,95262.12
2019-04-11T16:59:13.626Z,95266.33
2019-04-11T17:01:42.376Z,95264.64
2019-04-11T17:04:10.949Z,95264.22
2019-04-11T17:06:41.120Z,95266.74
2019-04-11T17:09:14.119Z,95273.85
2019-04-11T17:11:43.042Z,95272.12
2019-04-11T17:14:12.055Z,95275.06
2019-04-11T17:16:40.616Z,95279.27
2019-04-11T17:19:11.692Z,95285.56
2019-04-11T17:21:43.543Z,95287.62
2019-04-11T17:24:09.921Z,95288.88
2019-04-11T17:26:38.592Z,95286.66
2019-04-11T17:29:07.171Z,95296.36
2019-04-11T17:31:35.783Z,95299.63
2019-04-11T17:34:05.728Z,95296.26
2019-04-11T17:36:34.700Z,95301.69
2019-04-11T17:39:07.034Z,95302.89
2019-04-11T17:41:35.535Z,95305.83
2019-04-11T17:44:04.488Z,95311.30
2019-04-11T17:46:33.158Z,95310.45
2019-04-11T17:49:01.941Z,95317.59
2019-04-11T17:51:34.620Z,95317.97
2019-04-11T17:54:01.454Z,95325.48
2019-04-11T17:56:30.431Z,95328.05
2019-04-11T17:58:59.114Z,95334.73
2019-04-11T18:01:27.817Z,95335.94
2019-04-11T18:03:56.401Z,95335.53
2019-04-11T18:06:25.075Z,95336.36
2019-04-11T18:08:53.629Z,95340.09
2019-04-11T18:11:25.658Z,95346.86
2019-04-11T18:13:52.963Z,95345.61
2019-04-11T18:16:21.583Z,95359.48
2019-04-11T18:18:50.122Z,95358.27
2019-04-11T18:21:18.749Z,95357.84
2019-04-11T18:23:49.945Z,95359.94
2019-04-11T18:26:19.027Z,95362.05
2019-04-11T18:28:51.788Z,95362.47
2019-04-11T18:31:19.100Z,95358.30
2019-04-11T18:33:47.934Z,95360.84
2019-04-11T18:36:16.579Z,95364.19
2019-04-11T18:38:45.562Z,95364.23
2019-04-11T18:41:14.254Z,95369.29
2019-04-11T18:43:44.793Z,95368.08
2019-04-11T18:46:13.283Z,95368.50
2019-04-11T18:48:41.913Z,95369.38
2019-04-11T18:51:10.514Z,95370.64
2019-04-11T18:53:39.202Z,95368.92
2019-04-11T18:56:07.663Z,95371.48
2019-04-11T18:58:36.248Z,95373.17
2019-04-11T19:01:08.790Z,95369.85
2019-04-11T19:03:36.646Z,95372.38
2019-04-11T19:06:05.566Z,95369.06
2019-04-11T19:08:34.208Z,95366.91
2019-04-11T19:11:03.182Z,95370.66
2019-04-11T19:13:31.791Z,95361.45
2019-04-11T19:16:00.509Z,95371.58
2019-04-11T19:18:29.204Z,95368.22
2019-04-11T19:20:57.844Z,95366.50
2019-04-11T19:23:26.473Z,95366.95
2019-04-11T19:25:55.120Z,95370.73
2019-04-11T19:28:25.211Z,95367.34
2019-04-11T19:30:56.790Z,95369.06
2019-04-11T19:33:24.441Z,95372.43
2019-04-11T19:35:53.221Z,95368.64
2019-04-11T19:38:23.355Z,95361.03
2019-04-11T19:40:52.006Z,95363.98
2019-04-11T19:43:20.611Z,95360.15
2019-04-11T19:45:50.062Z,95366.45
2019-04-11T19:48:19.167Z,95362.30
2019-04-11T19:50:47.902Z,95363.98
2019-04-11T19:53:16.597Z,95369.86
2019-04-11T19:55:46.885Z,95360.61
2019-04-11T19:58:17.926Z,95363.09
2019-04-11T20:00:47.528Z,95367.33
2019-04-11T20:03:16.459Z,95370.73
2019-04-11T20:05:45.140Z,95366.91
2019-04-11T20:08:13.752Z,95375.73
2019-04-11T20:10:42.328Z,95374.02
2019-04-11T20:13:10.928Z,95371.02
2019-04-11T20:15:42.166Z,95376.16
2019-04-11T20:18:09.995Z,95373.63
2019-04-11T20:20:38.547Z,95372.74
2019-04-11T20:23:10.600Z,95372.28
2019-04-11T20:25:37.514Z,95378.59
2019-04-11T20:28:06.067Z,95376.86
2019-04-11T20:30:34.667Z,95371.81
2019-04-11T20:33:03.775Z,95379.42
2019-04-11T20:35:32.517Z,95376.86
2019-04-11T20:38:01.238Z,95373.06
2019-04-11T20:40:29.888Z,95374.32
2019-04-11T20:42:58.569Z,95373.02
2019-04-11T20:45:29.375Z,95368.41
2019-04-11T20:48:00.290Z,95367.14
2019-04-11T20:50:28.201Z,95375.59
2019-04-11T20:52:59.335Z,95372.64
2019-04-11T20:55:27.057Z,95374.75
2019-04-11T20:57:55.873Z,95372.27
2019-04-11T21:00:24.529Z,95374.80
2019-04-11T21:02:53.175Z,95378.59
2019-04-11T21:05:21.733Z,95374.00
2019-04-11T21:07:50.342Z,95376.95
2019-04-11T21:10:18.979Z,95375.28
2019-04-11T21:12:47.584Z,95378.22
2019-04-11T21:15:16.261Z,95375.28
2019-04-11T21:17:44.869Z,95373.17
2019-04-11T21:20:13.659Z,95368.97
2019-04-11T21:22:42.261Z,95365.66
2019-04-11T21:25:10.881Z,95367.71
2019-04-11T21:27:39.468Z,95366.45
2019-04-11T21:30:08.784Z,95365.61
2019-04-11T21:32:37.716Z,95372.74
2019-04-11T21:35:09.228Z,95369.44
2019-04-11T21:37:37.801Z,95369.02
2019-04-11T21:40:07.626Z,95367.71
2019-04-11T21:42:36.772Z,95365.66
2019-04-11T21:45:06.864Z,95368.96
2019-04-11T21:47:37.240Z,95366.45
2019-04-11T21:50:09.397Z,95372.28
2019-04-11T21:52:38.369Z,95371.91
2019-04-11T21:55:07.054Z,95376.11
2019-04-11T21:57:38.695Z,95379.48
2019-04-11T22:00:22.195Z,95383.62
2019-04-11T22:02:51.994Z,95381.98
2019-04-11T22:05:20.278Z,95383.26
2019-04-11T22:07:48.963Z,95374.84
2019-04-11T22:10:17.649Z,95379.84
2019-04-11T22:12:46.255Z,95383.90
2019-04-11T22:15:14.963Z,95384.78
2019-04-11T22:17:45.528Z,95379.64
2019-04-11T22:20:16.517Z,95383.37
2019-04-11T22:22:44.385Z,95378.27
2019-04-11T22:25:13.280Z,95382.00
2019-04-11T22:27:42.080Z,95387.05
2019-04-11T22:30:13.423Z,95382.33
2019-04-11T22:32:43.597Z,95382.37
2019-04-11T22:35:12.206Z,95382.33
2019-04-11T22:37:40.750Z,95386.98
2019-04-11T22:40:09.290Z,95384.42
2019-04-11T22:42:37.924Z,95382.70
2019-04-11T22:45:08.555Z,95383.96
2019-04-11T22:47:38.405Z,95395.67
2019-04-11T22:50:09.985Z,95395.29
2019-04-11T22:52:39.802Z,95399.06
2019-04-11T22:55:10.991Z,95388.11
2019-04-11T22:57:43.314Z,95388.52
2019-04-11T23:00:10.262Z,95382.64
2019-04-11T23:02:40.566Z,95383.47
2019-04-11T23:05:09.287Z,95386.00
2019-04-11T23:07:37.910Z,95388.20
2019-04-11T23:10:09.243Z,95390.35
2019-04-11T23:12:37.712Z,95384.85
2019-04-11T23:15:07.928Z,95383.58
2019-04-11T23:17:38.016Z,95386.48
2019-04-11T23:20:07.749Z,95386.05
2019-04-11T23:22:36.353Z,95383.53
2019-04-11T23:25:05.722Z,95385.59
2019-04-11T23:27:34.256Z,95383.07
2019-04-11T23:30:02.896Z,95378.86
2019-04-11T23:32:31.555Z,95374.25
2019-04-11T23:35:00.061Z,95384.74
2019-04-11T23:37:30.378Z,95376.45
2019-04-11T23:39:59.006Z,95383.07
2019-04-11T23:42:27.793Z,95371.36
2019-04-11T23:44:56.310Z,95376.39
2019-04-11T23:47:24.877Z,95370.83
2019-04-11T23:49:55.882Z,95369.15
2019-04-11T23:52:26.855Z,95371.25
2019-04-11T23:54:54.237Z,95374.60
2019-04-11T23:57:22.795Z,95378.34
2019-04-11T23:59:51.341Z,95378.75
